sensor_id;sensor_type;location;lat;lon;timestamp;temperature;humidity
23520;DHT22;11936;50.820;4.336;2023-07-31T00:01:28;18.30;99.90
23520;DHT22;11936;50.820;4.336;2023-07-31T00:03:53;18.30;99.90
23520;DHT22;11936;50.820;4.336;2023-07-31T00:06:19;18.20;99.90
23520;DHT22;11936;50.820;4.336;2023-07-31T00:08:44;18.20;99.90
23520;DHT22;11936;50.820;4.336;2023-07-31T00:11:10;18.10;99.90
23520;DHT22;11936;50.820;4.336;2023-07-31T00:13:35;18.10;99.90
23520;DHT22;11936;50.820;4.336;2023-07-31T00:16:01;18.10;99.90
23520;DHT22;11936;50.820;4.336;2023-07-31T00:18:27;18.20;99.90
23520;DHT22;11936;50.820;4.336;2023-07-31T00:20:52;18.30;99.90
23520;DHT22;11936;50.820;4.336;2023-07-31T00:23:18;18.20;99.90
23520;DHT22;11936;50.820;4.336;2023-07-31T00:25:43;18.30;99.90
23520;DHT22;11936;50.820;4.336;2023-07-31T00:28:10;18.30;99.90
23520;DHT22;11936;50.820;4.336;2023-07-31T00:30:35;18.20;99.90
23520;DHT22;11936;50.820;4.336;2023-07-31T00:33:01;18.30;99.90
23520;DHT22;11936;50.820;4.336;2023-07-31T00:35:26;18.30;99.90
23520;DHT22;11936;50.820;4.336;2023-07-31T00:37:52;18.30;99.90
23520;DHT22;11936;50.820;4.336;2023-07-31T00:40:17;18.30;99.90
23520;DHT22;11936;50.820;4.336;2023-07-31T00:42:43;18.30;99.90
23520;DHT22;11936;50.820;4.336;2023-07-31T00:45:09;18.20;99.90
23520;DHT22;11936;50.820;4.336;2023-07-31T00:47:34;18.10;99.90
23520;DHT22;11936;50.820;4.336;2023-07-31T00:50:00;18.30;99.90
23520;DHT22;11936;50.820;4.336;2023-07-31T00:52:26;18.30;99.90
23520;DHT22;11936;50.820;4.336;2023-07-31T00:54:51;18.40;99.90
23520;DHT22;11936;50.820;4.336;2023-07-31T00:57:17;18.40;99.90
23520;DHT22;11936;50.820;4.336;2023-07-31T00:59:43;18.30;99.90
23520;DHT22;11936;50.820;4.336;2023-07-31T01:02:08;18.30;99.90
23520;DHT22;11936;50.820;4.336;2023-07-31T01:04:34;18.30;99.90
23520;DHT22;11936;50.820;4.336;2023-07-31T01:07:17;18.50;99.90
23520;DHT22;11936;50.820;4.336;2023-07-31T01:10:02;18.40;99.90
23520;DHT22;11936;50.820;4.336;2023-07-31T01:12:30;18.20;99.90
23520;DHT22;11936;50.820;4.336;2023-07-31T01:15:05;18.20;99.90
23520;DHT22;11936;50.820;4.336;2023-07-31T01:17:31;18.20;99.90
23520;DHT22;11936;50.820;4.336;2023-07-31T01:20:02;18.00;99.90
23520;DHT22;11936;50.820;4.336;2023-07-31T01:28:15;17.90;99.90
23520;DHT22;11936;50.820;4.336;2023-07-31T01:30:44;17.90;99.90
23520;DHT22;11936;50.820;4.336;2023-07-31T01:33:11;18.00;99.90
23520;DHT22;11936;50.820;4.336;2023-07-31T01:35:37;18.10;99.90
23520;DHT22;11936;50.820;4.336;2023-07-31T01:38:05;18.20;99.90
23520;DHT22;11936;50.820;4.336;2023-07-31T01:40:30;18.10;99.90
23520;DHT22;11936;50.820;4.336;2023-07-31T01:42:56;18.10;99.90
23520;DHT22;11936;50.820;4.336;2023-07-31T01:45:21;18.00;99.90
23520;DHT22;11936;50.820;4.336;2023-07-31T01:47:47;18.10;99.90
23520;DHT22;11936;50.820;4.336;2023-07-31T01:50:13;18.10;99.90
23520;DHT22;11936;50.820;4.336;2023-07-31T01:52:38;18.10;99.90
23520;DHT22;11936;50.820;4.336;2023-07-31T01:55:04;18.10;99.90
23520;DHT22;11936;50.820;4.336;2023-07-31T01:57:30;18.30;99.90
23520;DHT22;11936;50.820;4.336;2023-07-31T01:59:55;18.20;99.90
23520;DHT22;11936;50.820;4.336;2023-07-31T02:02:22;18.20;99.90
23520;DHT22;11936;50.820;4.336;2023-07-31T02:04:48;18.20;99.90
23520;DHT22;11936;50.820;4.336;2023-07-31T02:07:14;18.20;99.90
23520;DHT22;11936;50.820;4.336;2023-07-31T02:09:39;18.40;99.90
23520;DHT22;11936;50.820;4.336;2023-07-31T02:12:06;18.30;99.90
23520;DHT22;11936;50.820;4.336;2023-07-31T02:14:34;18.20;99.90
23520;DHT22;11936;50.820;4.336;2023-07-31T02:16:59;18.20;99.90
23520;DHT22;11936;50.820;4.336;2023-07-31T02:19:25;18.40;99.90
23520;DHT22;11936;50.820;4.336;2023-07-31T02:21:51;18.30;99.90
23520;DHT22;11936;50.820;4.336;2023-07-31T02:24:16;18.30;99.90
23520;DHT22;11936;50.820;4.336;2023-07-31T02:26:42;18.20;99.90
23520;DHT22;11936;50.820;4.336;2023-07-31T02:29:08;18.20;99.90
23520;DHT22;11936;50.820;4.336;2023-07-31T02:31:34;18.30;99.90
23520;DHT22;11936;50.820;4.336;2023-07-31T02:33:59;18.30;99.90
23520;DHT22;11936;50.820;4.336;2023-07-31T02:36:25;18.40;99.90
23520;DHT22;11936;50.820;4.336;2023-07-31T02:38:50;18.40;99.90
23520;DHT22;11936;50.820;4.336;2023-07-31T02:41:16;18.40;99.90
23520;DHT22;11936;50.820;4.336;2023-07-31T02:43:41;18.30;99.90
23520;DHT22;11936;50.820;4.336;2023-07-31T02:46:07;18.20;99.90
23520;DHT22;11936;50.820;4.336;2023-07-31T02:48:33;18.30;99.90
23520;DHT22;11936;50.820;4.336;2023-07-31T02:50:58;18.30;99.90
23520;DHT22;11936;50.820;4.336;2023-07-31T02:53:24;18.30;99.90
23520;DHT22;11936;50.820;4.336;2023-07-31T02:55:49;18.30;99.90
23520;DHT22;11936;50.820;4.336;2023-07-31T02:58:15;18.40;99.90
23520;DHT22;11936;50.820;4.336;2023-07-31T03:00:44;18.40;99.90
23520;DHT22;11936;50.820;4.336;2023-07-31T03:03:10;18.40;99.90
23520;DHT22;11936;50.820;4.336;2023-07-31T03:05:35;18.50;99.90
23520;DHT22;11936;50.820;4.336;2023-07-31T03:08:01;18.50;99.90
23520;DHT22;11936;50.820;4.336;2023-07-31T03:10:27;18.40;99.90
23520;DHT22;11936;50.820;4.336;2023-07-31T03:12:52;18.40;99.90
23520;DHT22;11936;50.820;4.336;2023-07-31T03:15:18;18.30;99.90
23520;DHT22;11936;50.820;4.336;2023-07-31T03:17:43;18.30;99.90
23520;DHT22;11936;50.820;4.336;2023-07-31T03:20:09;18.30;99.90
23520;DHT22;11936;50.820;4.336;2023-07-31T03:22:35;18.30;99.90
23520;DHT22;11936;50.820;4.336;2023-07-31T03:25:02;18.30;99.90
23520;DHT22;11936;50.820;4.336;2023-07-31T03:27:28;18.50;99.90
23520;DHT22;11936;50.820;4.336;2023-07-31T03:29:53;18.30;99.90
23520;DHT22;11936;50.820;4.336;2023-07-31T03:32:19;18.20;99.90
23520;DHT22;11936;50.820;4.336;2023-07-31T03:34:45;18.10;99.90
23520;DHT22;11936;50.820;4.336;2023-07-31T03:37:10;18.00;99.90
23520;DHT22;11936;50.820;4.336;2023-07-31T03:39:36;18.10;99.90
23520;DHT22;11936;50.820;4.336;2023-07-31T03:42:01;18.00;99.90
23520;DHT22;11936;50.820;4.336;2023-07-31T03:44:27;18.00;99.90
23520;DHT22;11936;50.820;4.336;2023-07-31T03:46:53;18.20;99.90
23520;DHT22;11936;50.820;4.336;2023-07-31T03:49:19;18.30;99.90
23520;DHT22;11936;50.820;4.336;2023-07-31T03:51:44;18.20;99.90
23520;DHT22;11936;50.820;4.336;2023-07-31T03:54:10;18.30;99.90
23520;DHT22;11936;50.820;4.336;2023-07-31T03:56:35;18.00;99.90
23520;DHT22;11936;50.820;4.336;2023-07-31T03:59:01;18.20;99.90
23520;DHT22;11936;50.820;4.336;2023-07-31T04:01:26;18.20;99.90
23520;DHT22;11936;50.820;4.336;2023-07-31T04:03:52;18.20;99.90
23520;DHT22;11936;50.820;4.336;2023-07-31T04:06:18;17.90;99.90
23520;DHT22;11936;50.820;4.336;2023-07-31T04:08:44;18.00;99.90
23520;DHT22;11936;50.820;4.336;2023-07-31T04:11:10;18.00;99.90
23520;DHT22;11936;50.820;4.336;2023-07-31T04:13:37;17.90;99.90
23520;DHT22;11936;50.820;4.336;2023-07-31T04:16:02;18.00;99.90
23520;DHT22;11936;50.820;4.336;2023-07-31T04:18:28;18.00;99.90
23520;DHT22;11936;50.820;4.336;2023-07-31T04:20:56;18.00;99.90
23520;DHT22;11936;50.820;4.336;2023-07-31T04:23:24;18.10;99.90
23520;DHT22;11936;50.820;4.336;2023-07-31T04:25:49;18.00;99.90
23520;DHT22;11936;50.820;4.336;2023-07-31T04:28:15;18.10;99.90
23520;DHT22;11936;50.820;4.336;2023-07-31T04:30:40;18.10;99.90
23520;DHT22;11936;50.820;4.336;2023-07-31T04:33:06;18.10;99.90
23520;DHT22;11936;50.820;4.336;2023-07-31T04:35:32;18.00;99.90
23520;DHT22;11936;50.820;4.336;2023-07-31T04:37:57;17.90;99.90
23520;DHT22;11936;50.820;4.336;2023-07-31T04:40:23;18.00;99.90
23520;DHT22;11936;50.820;4.336;2023-07-31T04:42:48;18.00;99.90
23520;DHT22;11936;50.820;4.336;2023-07-31T04:45:14;17.90;99.90
23520;DHT22;11936;50.820;4.336;2023-07-31T04:47:42;17.90;99.90
23520;DHT22;11936;50.820;4.336;2023-07-31T04:50:08;17.80;99.90
23520;DHT22;11936;50.820;4.336;2023-07-31T04:52:34;17.80;99.90
23520;DHT22;11936;50.820;4.336;2023-07-31T04:55:00;17.60;99.90
23520;DHT22;11936;50.820;4.336;2023-07-31T04:57:25;17.60;99.90
23520;DHT22;11936;50.820;4.336;2023-07-31T04:59:51;17.70;99.90
23520;DHT22;11936;50.820;4.336;2023-07-31T05:02:16;17.80;99.90
23520;DHT22;11936;50.820;4.336;2023-07-31T05:04:42;17.80;99.90
23520;DHT22;11936;50.820;4.336;2023-07-31T05:07:08;17.80;99.90
23520;DHT22;11936;50.820;4.336;2023-07-31T05:09:33;17.80;99.90
23520;DHT22;11936;50.820;4.336;2023-07-31T05:11:59;17.80;99.90
23520;DHT22;11936;50.820;4.336;2023-07-31T05:14:26;17.70;99.90
23520;DHT22;11936;50.820;4.336;2023-07-31T05:16:51;17.70;99.90
23520;DHT22;11936;50.820;4.336;2023-07-31T05:19:17;17.70;99.90
23520;DHT22;11936;50.820;4.336;2023-07-31T05:21:43;17.70;99.90
23520;DHT22;11936;50.820;4.336;2023-07-31T05:24:09;17.70;99.90
23520;DHT22;11936;50.820;4.336;2023-07-31T05:26:35;17.70;99.90
23520;DHT22;11936;50.820;4.336;2023-07-31T05:29:00;17.80;99.90
23520;DHT22;11936;50.820;4.336;2023-07-31T05:31:26;17.70;99.90
